This is the latest recevied weather packets stored in our database for station/object W4VCO. If no packets are shown the sender has not sent any weather packets the latest 10 day(s).
| Time | Temp. | Humidity | Pressure | Rain* | Wind** | Luminosity | Snow |
|---|---|---|---|---|---|---|---|
| 1777148138 | 30° C | 41% | 1008.1 hPa | 0 mm | - | - | - |
| 1777147840 | 30° C | 40% | 1008.1 hPa | 0 mm | - | - | - |
| 1777147541 | 29.44° C | 40% | 1008.2 hPa | 0 mm | - | - | - |
| 1777140339 | 29.44° C | 42% | 1009.8 hPa | 0 mm | - | - | - |
| 1777139137 | 30° C | 40% | 1009.9 hPa | 0 mm | - | - | - |
| 1777138538 | 30° C | 40% | 1010.1 hPa | 0 mm | - | - | - |
| 1777137338 | 30.56° C | 42% | 1010 hPa | 0 mm | - | - | - |
| 1777133738 | 28.89° C | 49% | 1010 hPa | 0 mm | - | - | - |
| 1777133440 | 28.89° C | 50% | 1010 hPa | 0 mm | - | - | - |
| 1777133139 | 28.89° C | 48% | 1010.3 hPa | 0 mm | - | - | - |
| 1777132537 | 28.33° C | 53% | 1010.5 hPa | 0 mm | - | - | - |
| 1777131640 | 27.78° C | 54% | 1010.6 hPa | 0 mm | - | - | - |
| 1777129538 | 26.67° C | 61% | 1010.5 hPa | 0 mm | - | - | - |
| 1777128941 | 26.11° C | 63% | 1010.6 hPa | 0 mm | - | - | - |
| 1777128640 | 26.11° C | 64% | 1010.6 hPa | 0 mm | - | - | - |
| 1777127739 | 25.56° C | 65% | 1010.6 hPa | 0 mm | - | - | - |
| 1777127138 | 25° C | 68% | 1010.6 hPa | 0 mm | - | - | - |
| 1777126840 | 25° C | 69% | 1010.5 hPa | 0 mm | - | - | - |
| 1777126538 | 25° C | 71% | 1010.5 hPa | 0 mm | - | - | - |
| 1777125937 | 24.44° C | 71% | 1010.4 hPa | 0 mm | - | - | - |
| 1777124440 | 22.78° C | 78% | 1010.3 hPa | 0 mm | - | - | - |
| 1777124139 | 22.78° C | 81% | 1010.4 hPa | 0 mm | - | - | - |
| 1777092684 | 20.56° C | 89% | 1011.4 hPa | 0.76 mm | - | - | - |
| 1777092643 | 20.56° C | 89% | 1011.4 hPa | 0.76 mm | - | - | - |
| 1777090843 | 21.67° C | 89% | 1011.5 hPa | 0.76 mm | - | - | - |
* Rain latest hour (hover to see other rain measurements)
** Current wind speed in m/s (hover to see current wind gust speed)